Wetterstation Vordersexau
Wetterdaten: Woche 04.08.14 - 10.08.14 (KW32)
Datum Zeit Temp. A. Feuchte A. Luftdruck Regen Wind Richtung Taupunkt Windchill Windben
04.08.2014 00:00 16,3 C 85 % 985,2 hPa 0,0 l/m 0,0 km/h SO 13,8 C 16,3 C 0,0 km/h
04.08.2014 01:00 15,2 C 86 % 985,4 hPa 0,0 l/m 0,0 km/h SO 12,9 C 15,2 C 0,0 km/h
04.08.2014 02:00 14,1 C 86 % 985,4 hPa 0,0 l/m 0,0 km/h SO 11,8 C 14,1 C 0,0 km/h
04.08.2014 03:00 13,6 C 86 % 985,7 hPa 0,0 l/m 0,0 km/h SO 11,3 C 13,6 C 0,0 km/h
04.08.2014 04:00 13,2 C 85 % 985,7 hPa 0,0 l/m 0,0 km/h SO 10,7 C 13,2 C 0,0 km/h
04.08.2014 05:00 12,8 C 85 % 985,7 hPa 0,0 l/m 0,0 km/h SO 10,3 C 12,8 C 0,0 km/h
04.08.2014 06:00 12,7 C 85 % 986,1 hPa 0,0 l/m 0,0 km/h SO 10,2 C 12,7 C 0,0 km/h
04.08.2014 07:00 13,1 C 85 % 986,6 hPa 0,0 l/m 0,0 km/h SO 10,6 C 13,1 C 0,0 km/h
04.08.2014 08:00 20,5 C 85 % 986,8 hPa 0,0 l/m 0,0 km/h O-SO 17,9 C 20,5 C 0,0 km/h
04.08.2014 09:00 23,3 C 67 % 987,2 hPa 0,0 l/m 0,0 km/h W 16,8 C 23,3 C 0,0 km/h
04.08.2014 10:00 26,9 C 62 % 987,3 hPa 0,0 l/m 0,0 km/h S-SW 19,0 C 26,9 C 0,0 km/h
04.08.2014 11:00 28,8 C 57 % 987,4 hPa 0,0 l/m 0,0 km/h N-NO 19,4 C 28,8 C 0,0 km/h
04.08.2014 12:00 27,8 C 58 % 987,1 hPa 0,0 l/m 0,0 km/h W-NW 18,8 C 27,8 C 0,0 km/h
04.08.2014 13:00 29,9 C 46 % 986,9 hPa 0,0 l/m 7,8 km/h W-SW 17,0 C 29,8 C 4,3 km/h
04.08.2014 14:00 29,8 C 43 % 986,4 hPa 0,0 l/m 0,0 km/h NO 15,8 C 29,8 C 0,0 km/h
04.08.2014 15:00 32,9 C 40 % 986,1 hPa 0,0 l/m 0,0 km/h W-SW 17,5 C 32,9 C 0,0 km/h
04.08.2014 16:00 31,5 C 40 % 986,3 hPa 0,0 l/m 2,6 km/h NW 16,2 C 31,5 C 1,4 km/h
04.08.2014 17:00 26,8 C 50 % 986,4 hPa 0,0 l/m 0,0 km/h W-NW 15,5 C 26,8 C 0,0 km/h
04.08.2014 18:00 22,8 C 62 % 987,0 hPa 0,0 l/m 3,2 km/h N-NO 15,1 C 22,8 C 1,8 km/h
04.08.2014 19:00 21,5 C 69 % 987,6 hPa 0,0 l/m 0,0 km/h NW 15,6 C 21,5 C 0,0 km/h
04.08.2014 20:00 21,1 C 69 % 987,9 hPa 0,0 l/m 0,0 km/h SO 15,2 C 21,1 C 0,0 km/h
04.08.2014 21:00 19,1 C 75 % 988,6 hPa 0,0 l/m 4,0 km/h SO 14,6 C 19,1 C 4,0 km/h
04.08.2014 22:00 17,0 C 79 % 988,8 hPa 0,0 l/m 0,0 km/h SO 13,3 C 17,0 C 0,0 km/h
04.08.2014 23:00 16,4 C 81 % 989,1 hPa 0,0 l/m 0,0 km/h NO 13,1 C 16,4 C 0,0 km/h
05.08.2014 00:00 15,8 C 84 % 989,2 hPa 0,0 l/m 0,0 km/h NO 13,1 C 15,8 C 0,0 km/h
05.08.2014 01:00 15,3 C 84 % 989,2 hPa 0,0 l/m 0,0 km/h N-NO 12,6 C 15,3 C 0,0 km/h
05.08.2014 02:00 16,1 C 85 % 989,2 hPa 0,0 l/m 0,0 km/h SO 13,6 C 16,1 C 0,0 km/h
05.08.2014 03:00 16,1 C 85 % 989,2 hPa 0,0 l/m 2,5 km/h SO 13,6 C 16,1 C 2,5 km/h
05.08.2014 04:00 14,9 C 86 % 989,1 hPa 0,0 l/m 0,0 km/h SO 12,6 C 14,9 C 0,0 km/h
05.08.2014 05:00 14,1 C 86 % 989,5 hPa 0,0 l/m 0,0 km/h SO 11,8 C 14,1 C 0,0 km/h
05.08.2014 06:00 14,1 C 86 % 989,8 hPa 0,0 l/m 0,0 km/h SO 11,8 C 14,1 C 0,0 km/h
05.08.2014 07:00 15,3 C 85 % 990,0 hPa 0,0 l/m 0,0 km/h SO 12,8 C 15,3 C 0,0 km/h
05.08.2014 08:00 17,8 C 82 % 989,9 hPa 0,0 l/m 0,0 km/h SO 14,7 C 17,8 C 0,0 km/h
05.08.2014 09:00 22,1 C 74 % 990,1 hPa 0,0 l/m 0,0 km/h W 17,2 C 22,1 C 0,0 km/h
05.08.2014 10:00 25,2 C 62 % 990,2 hPa 0,0 l/m 0,0 km/h W 17,4 C 25,2 C 0,0 km/h
05.08.2014 11:00 27,4 C 49 % 990,3 hPa 0,0 l/m 0,0 km/h SW 15,7 C 27,4 C 0,0 km/h
05.08.2014 12:00 28,1 C 50 % 990,4 hPa 0,0 l/m 0,0 km/h N-NO 16,7 C 28,1 C 0,0 km/h
05.08.2014 13:00 27,6 C 48 % 990,0 hPa 0,0 l/m 0,0 km/h N-NO 15,6 C 27,6 C 0,0 km/h
05.08.2014 14:00 27,3 C 50 % 990,0 hPa 0,0 l/m 25,9 km/h N-NO 15,9 C 25,2 C 14,4 km/h
05.08.2014 15:00 24,5 C 54 % 990,3 hPa 0,0 l/m 2,6 km/h NO 14,6 C 24,5 C 1,4 km/h
05.08.2014 16:00 31,2 C 42 % 990,1 hPa 0,0 l/m 0,0 km/h N-NO 16,7 C 31,2 C 0,0 km/h
05.08.2014 17:00 31,9 C 37 % 989,9 hPa 0,0 l/m 0,0 km/h N-NO 15,4 C 31,9 C 0,0 km/h
05.08.2014 18:00 31,0 C 37 % 989,4 hPa 0,0 l/m 0,0 km/h N 14,6 C 31,0 C 0,0 km/h
05.08.2014 19:00 27,3 C 43 % 989,7 hPa 0,0 l/m 0,0 km/h N-NO 13,6 C 27,3 C 0,0 km/h
05.08.2014 20:00 21,3 C 59 % 990,0 hPa 0,0 l/m 0,0 km/h O 13,0 C 21,3 C 0,0 km/h
05.08.2014 21:00 17,3 C 73 % 990,4 hPa 0,0 l/m 0,0 km/h O-NO 12,4 C 17,3 C 0,0 km/h
05.08.2014 22:00 15,8 C 78 % 990,8 hPa 0,0 l/m 0,0 km/h SO 12,0 C 15,8 C 0,0 km/h
05.08.2014 23:00 14,6 C 82 % 990,6 hPa 0,0 l/m 0,0 km/h SO 11,6 C 14,6 C 0,0 km/h
06.08.2014 00:00 13,9 C 83 % 990,4 hPa 0,0 l/m 0,0 km/h SO 11,1 C 13,9 C 0,0 km/h
06.08.2014 01:00 13,3 C 84 % 990,0 hPa 0,0 l/m 0,0 km/h SO 10,7 C 13,3 C 0,0 km/h
06.08.2014 02:00 12,8 C 85 % 989,7 hPa 0,0 l/m 0,4 km/h NO 10,3 C 12,8 C 0,4 km/h
06.08.2014 03:00 12,2 C 85 % 989,7 hPa 0,0 l/m 0,0 km/h O-SO 9,8 C 12,2 C 0,0 km/h
06.08.2014 04:00 11,6 C 86 % 989,5 hPa 0,0 l/m 0,0 km/h O 9,3 C 11,6 C 0,0 km/h
06.08.2014 05:00 11,0 C 86 % 989,2 hPa 0,0 l/m 0,0 km/h O-NO 8,7 C 11,0 C 0,0 km/h
06.08.2014 06:00 11,0 C 86 % 989,2 hPa 0,0 l/m 0,0 km/h N-NO 8,7 C 11,0 C 0,0 km/h
06.08.2014 07:00 11,9 C 86 % 989,3 hPa 0,0 l/m 0,0 km/h NO 9,6 C 11,9 C 0,0 km/h
06.08.2014 08:00 18,8 C 82 % 988,9 hPa 0,0 l/m 0,0 km/h W 15,7 C 18,8 C 0,0 km/h
06.08.2014 09:00 23,9 C 63 % 988,8 hPa 0,0 l/m 0,0 km/h W 16,4 C 23,9 C 0,0 km/h
06.08.2014 10:00 26,5 C 53 % 988,4 hPa 0,0 l/m 0,0 km/h N 16,1 C 26,5 C 0,0 km/h
06.08.2014 11:00 26,6 C 53 % 988,2 hPa 0,0 l/m 0,0 km/h N-NO 16,2 C 26,6 C 0,0 km/h
06.08.2014 12:00 27,2 C 52 % 988,0 hPa 0,0 l/m 1,9 km/h NW 16,5 C 27,2 C 1,1 km/h
06.08.2014 13:00 28,4 C 48 % 987,7 hPa 0,0 l/m 0,0 km/h W 16,3 C 28,4 C 0,0 km/h
06.08.2014 14:00 28,5 C 45 % 987,3 hPa 0,0 l/m 0,0 km/h W 15,4 C 28,5 C 0,0 km/h
06.08.2014 15:00 28,6 C 44 % 987,0 hPa 0,0 l/m 0,0 km/h W-SW 15,1 C 28,6 C 0,0 km/h
06.08.2014 16:00 27,1 C 47 % 986,7 hPa 0,0 l/m 0,0 km/h W-NW 14,8 C 27,1 C 0,0 km/h
06.08.2014 17:00 24,7 C 51 % 986,4 hPa 0,0 l/m 0,0 km/h W-NW 13,9 C 24,7 C 0,0 km/h
06.08.2014 18:00 23,0 C 63 % 986,3 hPa 0,0 l/m 0,0 km/h W-NW 15,6 C 23,0 C 0,0 km/h
06.08.2014 19:00 21,9 C 67 % 986,6 hPa 0,0 l/m 0,0 km/h W-NW 15,5 C 21,9 C 0,0 km/h
06.08.2014 20:00 20,1 C 72 % 986,6 hPa 0,0 l/m 0,0 km/h NW 14,9 C 20,1 C 0,0 km/h
06.08.2014 21:00 18,5 C 75 % 987,1 hPa 0,0 l/m 0,0 km/h NW 14,0 C 18,5 C 0,0 km/h
06.08.2014 22:00 17,5 C 79 % 987,1 hPa 0,0 l/m 0,0 km/h O-SO 13,8 C 17,5 C 0,0 km/h
06.08.2014 23:00 16,9 C 81 % 986,8 hPa 0,0 l/m 0,0 km/h O-SO 13,6 C 16,9 C 0,0 km/h
07.08.2014 00:00 16,8 C 83 % 986,5 hPa 0,0 l/m 0,0 km/h O-SO 13,9 C 16,8 C 0,0 km/h
07.08.2014 01:00 16,7 C 82 % 986,3 hPa 0,0 l/m 0,0 km/h O 13,6 C 16,7 C 0,0 km/h
07.08.2014 02:00 16,4 C 83 % 986,6 hPa 0,0 l/m 0,0 km/h O 13,5 C 16,4 C 0,0 km/h
07.08.2014 03:00 16,4 C 84 % 986,4 hPa 0,0 l/m 0,0 km/h O 13,7 C 16,4 C 0,0 km/h
07.08.2014 04:00 16,2 C 85 % 986,4 hPa 0,0 l/m 0,0 km/h O-SO 13,7 C 16,2 C 0,0 km/h
07.08.2014 05:00 15,9 C 85 % 985,8 hPa 0,0 l/m 0,0 km/h O-SO 13,4 C 15,9 C 0,0 km/h
07.08.2014 06:00 16,0 C 85 % 985,9 hPa 0,0 l/m 0,0 km/h SO 13,5 C 16,0 C 0,0 km/h
07.08.2014 07:00 16,6 C 85 % 985,8 hPa 0,0 l/m 0,0 km/h O 14,1 C 16,6 C 0,0 km/h
07.08.2014 08:00 19,4 C 84 % 985,9 hPa 0,0 l/m 0,0 km/h S-SO 16,6 C 19,4 C 0,0 km/h
07.08.2014 09:00 22,3 C 76 % 986,3 hPa 0,0 l/m 0,0 km/h S-SW 17,9 C 22,3 C 0,0 km/h
07.08.2014 10:00 20,6 C 74 % 986,7 hPa 0,0 l/m 13,6 km/h S 15,8 C 18,3 C 7,6 km/h
07.08.2014 11:00 22,3 C 74 % 986,7 hPa 0,0 l/m 2,6 km/h W-SW 17,4 C 22,3 C 1,4 km/h
07.08.2014 12:00 24,7 C 66 % 986,5 hPa 0,0 l/m 0,0 km/h W-NW 17,9 C 24,7 C 0,0 km/h
07.08.2014 13:00 28,1 C 57 % 986,2 hPa 0,0 l/m 0,0 km/h SW 18,8 C 28,1 C 0,0 km/h
07.08.2014 14:00 29,0 C 54 % 985,9 hPa 0,0 l/m 0,0 km/h N-NO 18,7 C 29,0 C 0,0 km/h
07.08.2014 15:00 31,5 C 47 % 985,4 hPa 0,0 l/m 7,8 km/h W 18,8 C 31,4 C 4,3 km/h
07.08.2014 16:00 30,9 C 47 % 985,5 hPa 0,0 l/m 0,0 km/h W-SW 18,2 C 30,9 C 0,0 km/h
07.08.2014 17:00 29,9 C 52 % 985,6 hPa 0,0 l/m 13,6 km/h W 19,0 C 29,3 C 7,6 km/h
07.08.2014 18:00 27,9 C 54 % 985,6 hPa 0,0 l/m 5,2 km/h W-NW 17,7 C 27,9 C 2,9 km/h
07.08.2014 19:00 24,3 C 63 % 985,5 hPa 0,0 l/m 0,0 km/h W-NW 16,8 C 24,3 C 0,0 km/h
07.08.2014 20:00 21,4 C 71 % 986,0 hPa 0,0 l/m 0,0 km/h W 15,9 C 21,4 C 0,0 km/h
07.08.2014 21:00 18,6 C 75 % 986,3 hPa 0,0 l/m 0,0 km/h SO 14,1 C 18,6 C 0,0 km/h
07.08.2014 22:00 17,1 C 82 % 986,4 hPa 0,0 l/m 0,0 km/h SO 14,0 C 17,1 C 0,0 km/h
07.08.2014 23:00 15,9 C 84 % 986,5 hPa 0,0 l/m 0,0 km/h O-SO 13,2 C 15,9 C 0,0 km/h
08.08.2014 00:00 15,3 C 85 % 986,3 hPa 0,0 l/m 0,0 km/h O-SO 12,8 C 15,3 C 0,0 km/h
08.08.2014 01:00 15,3 C 85 % 986,4 hPa 0,0 l/m 0,0 km/h O 12,8 C 15,3 C 0,0 km/h
08.08.2014 02:00 14,8 C 85 % 986,3 hPa 0,0 l/m 0,0 km/h O-NO 12,3 C 14,8 C 0,0 km/h
08.08.2014 03:00 14,9 C 85 % 985,9 hPa 0,0 l/m 0,0 km/h O-NO 12,4 C 14,9 C 0,0 km/h
08.08.2014 04:00 14,6 C 85 % 985,6 hPa 0,0 l/m 0,0 km/h O-NO 12,1 C 14,6 C 0,0 km/h
08.08.2014 05:00 14,1 C 85 % 985,7 hPa 0,0 l/m 0,0 km/h O-SO 11,6 C 14,1 C 0,0 km/h
08.08.2014 06:00 13,8 C 85 % 985,5 hPa 0,0 l/m 0,0 km/h O-SO 11,3 C 13,8 C 0,0 km/h
08.08.2014 07:00 14,2 C 84 % 985,7 hPa 0,0 l/m 0,0 km/h O-NO 11,5 C 14,2 C 0,0 km/h
08.08.2014 08:00 22,5 C 81 % 985,5 hPa 0,0 l/m 0,0 km/h W-SW 19,1 C 22,5 C 0,0 km/h
08.08.2014 09:00 27,9 C 59 % 985,0 hPa 0,0 l/m 0,0 km/h W 19,1 C 27,9 C 0,0 km/h
08.08.2014 10:00 26,9 C 58 % 985,0 hPa 0,0 l/m 0,0 km/h N-NO 17,9 C 26,9 C 0,0 km/h
08.08.2014 11:00 29,0 C 53 % 984,6 hPa 0,0 l/m 4,5 km/h W 18,4 C 29,0 C 2,5 km/h
08.08.2014 12:00 28,5 C 55 % 984,4 hPa 0,0 l/m 0,0 km/h W 18,6 C 28,5 C 0,0 km/h
08.08.2014 13:00 28,8 C 56 % 984,1 hPa 0,0 l/m 0,0 km/h W 19,1 C 28,8 C 0,0 km/h
08.08.2014 14:00 29,9 C 55 % 983,7 hPa 0,0 l/m 0,0 km/h SW 19,9 C 29,9 C 0,0 km/h
08.08.2014 15:00 32,7 C 45 % 983,1 hPa 0,0 l/m 24,0 km/h W-NW 19,2 C 32,6 C 13,3 km/h
08.08.2014 16:00 33,6 C 41 % 982,2 hPa 0,0 l/m 7,8 km/h W 18,5 C 33,6 C 4,3 km/h
08.08.2014 17:00 34,6 C 35 % 981,7 hPa 0,0 l/m 11,7 km/h W-SW 16,9 C 34,6 C 6,5 km/h
08.08.2014 18:00 35,6 C 36 % 981,1 hPa 0,0 l/m 0,0 km/h W-NW 18,2 C 35,6 C 0,0 km/h
08.08.2014 19:00 31,1 C 43 % 980,8 hPa 0,0 l/m 0,0 km/h W-NW 17,0 C 31,1 C 0,0 km/h
08.08.2014 20:00 24,6 C 60 % 980,0 hPa 0,0 l/m 0,0 km/h N-NW 16,3 C 24,6 C 0,0 km/h
08.08.2014 21:00 21,1 C 70 % 980,1 hPa 0,0 l/m 0,0 km/h O-SO 15,4 C 21,1 C 0,0 km/h
08.08.2014 22:00 19,9 C 74 % 979,6 hPa 0,0 l/m 0,0 km/h NO 15,1 C 19,9 C 0,0 km/h
08.08.2014 23:00 19,1 C 78 % 979,4 hPa 0,0 l/m 0,0 km/h N-NO 15,2 C 19,1 C 0,0 km/h
09.08.2014 00:00 18,8 C 80 % 979,5 hPa 0,0 l/m 0,0 km/h N-NO 15,3 C 18,8 C 0,0 km/h
09.08.2014 01:00 17,6 C 82 % 979,7 hPa 0,0 l/m 0,0 km/h W-SW 14,5 C 17,6 C 0,0 km/h
09.08.2014 02:00 19,3 C 83 % 981,3 hPa 0,0 l/m 11,5 km/h S-SW 16,3 C 17,4 C 11,5 km/h
09.08.2014 03:00 18,8 C 82 % 981,2 hPa 0,0 l/m 7,6 km/h NO 15,7 C 18,3 C 7,6 km/h
09.08.2014 04:00 18,6 C 81 % 981,5 hPa 0,0 l/m 0,4 km/h NO 15,3 C 18,6 C 0,4 km/h
09.08.2014 05:00 17,5 C 83 % 981,7 hPa 0,0 l/m 0,0 km/h W-NW 14,6 C 17,5 C 0,0 km/h
09.08.2014 06:00 17,9 C 83 % 982,2 hPa 0,0 l/m 0,0 km/h N 15,0 C 17,9 C 0,0 km/h
09.08.2014 07:00 18,9 C 81 % 982,7 hPa 0,0 l/m 0,0 km/h NW 15,6 C 18,9 C 0,0 km/h
09.08.2014 08:00 19,6 C 80 % 983,3 hPa 0,0 l/m 0,0 km/h S-SW 16,1 C 19,6 C 0,0 km/h
09.08.2014 09:00 18,8 C 84 % 984,4 hPa 0,4 l/m 25,9 km/h W-SW 16,0 C 13,6 C 14,4 km/h
09.08.2014 10:00 21,7 C 77 % 985,3 hPa 0,0 l/m 8,4 km/h SW 17,5 C 21,0 C 4,7 km/h
09.08.2014 11:00 23,7 C 75 % 985,8 hPa 0,0 l/m 24,0 km/h S-SW 19,0 C 20,5 C 13,3 km/h
09.08.2014 12:00 26,4 C 65 % 986,2 hPa 0,0 l/m 9,7 km/h W 19,3 C 25,8 C 5,4 km/h
09.08.2014 13:00 27,7 C 58 % 985,9 hPa 0,0 l/m 9,7 km/h W 18,7 C 27,2 C 5,4 km/h
09.08.2014 14:00 27,6 C 56 % 985,8 hPa 0,0 l/m 7,8 km/h S 18,0 C 27,4 C 4,3 km/h
09.08.2014 15:00 30,2 C 50 % 985,5 hPa 0,0 l/m 24,0 km/h W-SW 18,6 C 29,2 C 13,3 km/h
09.08.2014 16:00 31,6 C 43 % 985,1 hPa 0,0 l/m 10,4 km/h S-SO 17,5 C 31,4 C 5,8 km/h
09.08.2014 17:00 33,5 C 40 % 984,6 hPa 0,0 l/m 10,4 km/h W 18,0 C 33,5 C 5,8 km/h
09.08.2014 18:00 35,6 C 33 % 984,3 hPa 0,0 l/m 0,0 km/h S-SW 16,8 C 35,6 C 0,0 km/h
09.08.2014 19:00 32,9 C 37 % 983,8 hPa 0,0 l/m 0,0 km/h W-SW 16,2 C 32,9 C 0,0 km/h
09.08.2014 20:00 23,3 C 59 % 983,6 hPa 0,0 l/m 0,0 km/h W-NW 14,8 C 23,3 C 0,0 km/h
09.08.2014 21:00 19,8 C 71 % 984,0 hPa 0,0 l/m 0,0 km/h SO 14,4 C 19,8 C 0,0 km/h
09.08.2014 22:00 18,3 C 75 % 983,4 hPa 0,0 l/m 0,0 km/h O-NO 13,8 C 18,3 C 0,0 km/h
09.08.2014 23:00 18,5 C 79 % 982,9 hPa 0,0 l/m 0,0 km/h SW 14,8 C 18,5 C 0,0 km/h
10.08.2014 00:00 17,7 C 83 % 984,5 hPa 0,4 l/m 0,0 km/h SW 14,8 C 17,7 C 0,0 km/h
10.08.2014 01:00 17,8 C 84 % 984,2 hPa 0,4 l/m 0,0 km/h SO 15,1 C 17,8 C 0,0 km/h
10.08.2014 02:00 17,7 C 84 % 983,1 hPa 0,4 l/m 0,0 km/h N-NO 15,0 C 17,7 C 0,0 km/h
10.08.2014 03:00 17,6 C 84 % 982,4 hPa 0,2 l/m 0,0 km/h SO 14,9 C 17,6 C 0,0 km/h
10.08.2014 04:00 17,3 C 84 % 982,5 hPa 0,0 l/m 0,0 km/h O-SO 14,6 C 17,3 C 0,0 km/h
10.08.2014 05:00 16,5 C 84 % 982,3 hPa 0,0 l/m 0,0 km/h SO 13,8 C 16,5 C 0,0 km/h
10.08.2014 06:00 16,6 C 83 % 982,2 hPa 0,0 l/m 0,0 km/h SO 13,7 C 16,6 C 0,0 km/h
10.08.2014 07:00 16,8 C 82 % 981,9 hPa 0,0 l/m 0,0 km/h N 13,7 C 16,8 C 0,0 km/h
10.08.2014 08:00 19,1 C 81 % 982,0 hPa 0,0 l/m 0,0 km/h N 15,8 C 19,1 C 0,0 km/h
10.08.2014 09:00 20,4 C 85 % 982,0 hPa 0,0 l/m 0,0 km/h W-SW 17,8 C 20,4 C 0,0 km/h
10.08.2014 10:00 26,3 C 72 % 981,8 hPa 0,0 l/m 0,0 km/h W 20,8 C 26,3 C 0,0 km/h
10.08.2014 11:00 31,8 C 57 % 981,1 hPa 0,0 l/m 0,0 km/h W 22,2 C 31,8 C 0,0 km/h
10.08.2014 12:00 30,3 C 56 % 980,7 hPa 0,0 l/m 7,1 km/h W-SW 20,5 C 30,2 C 4,0 km/h
10.08.2014 13:00 31,9 C 51 % 979,9 hPa 0,0 l/m 4,5 km/h W 20,5 C 31,9 C 2,5 km/h
10.08.2014 14:00 28,5 C 53 % 979,6 hPa 0,0 l/m 0,0 km/h W 18,0 C 28,5 C 0,0 km/h
10.08.2014 15:00 33,4 C 45 % 979,0 hPa 0,0 l/m 0,0 km/h W 19,8 C 33,4 C 0,0 km/h
10.08.2014 16:00 31,6 C 48 % 978,7 hPa 0,0 l/m 0,0 km/h W-SW 19,2 C 31,6 C 0,0 km/h
10.08.2014 17:00 31,3 C 51 % 978,4 hPa 0,0 l/m 0,0 km/h W 19,9 C 31,3 C 0,0 km/h
10.08.2014 18:00 29,6 C 55 % 978,1 hPa 0,0 l/m 0,0 km/h W-SW 19,6 C 29,6 C 0,0 km/h
10.08.2014 19:00 26,9 C 64 % 978,8 hPa 0,0 l/m 0,0 km/h W 19,5 C 26,9 C 0,0 km/h
10.08.2014 20:00 20,8 C 76 % 980,4 hPa 0,4 l/m 11,7 km/h S 16,4 C 19,0 C 6,5 km/h
10.08.2014 21:00 19,8 C 82 % 981,5 hPa 0,2 l/m 0,7 km/h S 16,6 C 19,8 C 0,7 km/h
10.08.2014 22:00 18,7 C 84 % 982,0 hPa 0,6 l/m 0,0 km/h NW 15,9 C 18,7 C 0,0 km/h
10.08.2014 23:00 19,1 C 84 % 981,4 hPa 0,0 l/m 0,0 km/h NW 16,3 C 19,1 C 0,0 km/h
Min-Datum _ 06.08.14 09.08.14 10.08.14 - 04.08.14 - 06.08.14 06.08.14 04.08.14
_ Min-Zeit 05:19 18:19 18:19 - 00:19 - 05:19 05:19 00:19
Minimum _ 11,0 C 33 % 978,1 hPa - 0,0 km/h - 8,7 C 11,0 C 0,0 km/h
Max-Datum _ 08.08.14 04.08.14 05.08.14 10.08.14 05.08.14 - 10.08.14 08.08.14 05.08.14
_ Max-Zeit 18:19 01:19 22:19 22:19 14:19 - 11:19 18:19 14:19
Maximum _ 35,6 C 86 % 990,8 hPa 0,6 l/m 25,9 km/h
N-NO
- 22,2 C 35,6 C 14,4 km/h
N-NO
Durchschnitt _ 21,9 C 69 % 985,6 hPa #3,1 l/m 1,9 km/h SO 15,4 C 21,8 C 1,1 km/h
www.sexauwetter.de